createdAt,value
2022-09-11T00:01:50.263Z,62.86
2022-09-11T00:04:18.455Z,61.72
2022-09-11T00:06:46.665Z,70.02
2022-09-11T00:09:14.829Z,68.57
2022-09-11T00:11:43.852Z,66.19
2022-09-11T00:14:15.410Z,66.12
2022-09-11T00:16:45.955Z,63.39
2022-09-11T00:19:19.911Z,63.26
2022-09-11T00:21:52.294Z,65.83
2022-09-11T00:24:20.503Z,62.95
2022-09-11T00:26:48.663Z,64.01
2022-09-11T00:29:16.861Z,63.86
2022-09-11T00:31:45.315Z,65.34
2022-09-11T00:34:13.626Z,69.76
2022-09-11T00:36:43.076Z,66.09
2022-09-11T00:39:14.196Z,69.77
2022-09-11T00:41:46.042Z,65.91
2022-09-11T00:44:15.976Z,64.23
2022-09-11T00:46:48.179Z,67.39
2022-09-11T00:49:41.681Z,69.56
2022-09-11T00:52:17.381Z,66.21
2022-09-11T00:54:59.905Z,65.48
2022-09-11T00:57:32.941Z,63.84
2022-09-11T01:00:03.122Z,63.12
2022-09-11T01:02:36.518Z,65.33
2022-09-11T01:05:06.011Z,63.11
2022-09-11T01:07:36.994Z,65.24
2022-09-11T01:10:08.254Z,68.07
2022-09-11T01:13:04.757Z,68.66
2022-09-11T01:16:08.513Z,71.64
2022-09-11T01:19:27.283Z,71.01
2022-09-11T01:22:46.615Z,68.66
2022-09-11T01:26:07.477Z,70.80
2022-09-11T01:28:40.227Z,74.25
2022-09-11T01:31:17.775Z,71.96
2022-09-11T01:33:57.364Z,70.33
2022-09-11T01:36:38.550Z,70.09
2022-09-11T01:39:06.955Z,70.73
2022-09-11T01:42:04.904Z,72.62
2022-09-11T01:44:57.294Z,73.68
2022-09-11T01:47:28.462Z,71.58
2022-09-11T01:50:06.047Z,71.89
2022-09-11T01:52:51.645Z,71.16
2022-09-11T01:55:30.144Z,71.11
2022-09-11T01:58:09.884Z,70.62
2022-09-11T02:00:49.589Z,73.52
2022-09-11T02:03:27.561Z,73.17
2022-09-11T02:06:05.044Z,75.43
2022-09-11T02:08:58.544Z,72.83
2022-09-11T02:11:36.706Z,74.14
2022-09-11T02:14:29.744Z,73.40
2022-09-11T02:17:24.163Z,71.78
2022-09-11T02:19:55.039Z,72.67
2022-09-11T02:22:24.599Z,73.18
2022-09-11T02:24:53.532Z,75.18
2022-09-11T02:27:27.218Z,71.52
2022-09-11T02:29:58.355Z,73.50
2022-09-11T02:32:27.749Z,72.71
2022-09-11T02:34:56.271Z,73.04
2022-09-11T02:37:43.766Z,72.59
2022-09-11T02:40:39.736Z,74.92
2022-09-11T02:43:39.337Z,77.23
2022-09-11T02:47:32.969Z,76.91
2022-09-11T02:50:33.757Z,73.09
2022-09-11T02:53:20.276Z,72.51
2022-09-11T02:56:35.025Z,73.62
2022-09-11T02:59:33.995Z,72.71
2022-09-11T03:02:02.582Z,70.76
2022-09-11T03:04:31.768Z,71.03
2022-09-11T03:07:00.318Z,71.87
2022-09-11T03:09:28.551Z,74.67
2022-09-11T03:12:04.463Z,73.24
2022-09-11T03:14:36.343Z,74.44
2022-09-11T03:17:06.258Z,74.64
2022-09-11T03:19:36.435Z,74.58
2022-09-11T03:22:06.051Z,73.73
2022-09-11T03:24:34.984Z,75.01
2022-09-11T03:27:04.520Z,75.57
2022-09-11T03:29:33.576Z,75.98
2022-09-11T03:32:02.780Z,74.79
2022-09-11T03:34:31.722Z,78.39
2022-09-11T03:37:00.306Z,77.65
2022-09-11T03:39:29.633Z,74.57
2022-09-11T03:42:01.213Z,73.81
2022-09-11T03:44:29.789Z,76.07
2022-09-11T03:46:57.975Z,74.65
2022-09-11T03:49:26.452Z,73.05
2022-09-11T03:51:54.673Z,73.87
2022-09-11T03:54:23.245Z,73.48
2022-09-11T03:56:52.482Z,73.85
2022-09-11T03:59:21.447Z,73.17
2022-09-11T04:01:51.782Z,72.36
2022-09-11T04:04:21.108Z,72.02
2022-09-11T04:06:50.047Z,74.58
2022-09-11T04:09:18.429Z,72.37
2022-09-11T04:11:48.660Z,73.38
2022-09-11T04:14:22.544Z,73.38
2022-09-11T04:16:53.650Z,72.96
2022-09-11T04:19:23.567Z,77.15
2022-09-11T04:21:51.998Z,74.42
2022-09-11T04:24:20.192Z,73.99
2022-09-11T04:26:49.966Z,73.50
2022-09-11T04:29:22.872Z,71.58
2022-09-11T04:31:53.069Z,71.48
2022-09-11T04:34:25.294Z,70.76
2022-09-11T04:36:55.360Z,71.65
2022-09-11T04:39:24.352Z,72.53
2022-09-11T04:41:52.606Z,71.55
2022-09-11T04:44:20.972Z,70.74
2022-09-11T04:46:49.359Z,76.20
2022-09-11T04:49:18.548Z,72.31
2022-09-11T04:51:48.146Z,74.46
2022-09-11T04:54:23.608Z,77.09
2022-09-11T04:56:53.450Z,73.65
2022-09-11T04:59:23.745Z,72.87
2022-09-11T05:01:57.750Z,71.63
2022-09-11T05:04:26.684Z,72.09
2022-09-11T05:06:56.763Z,75.08
2022-09-11T05:09:27.687Z,73.69
2022-09-11T05:11:57.143Z,72.90
2022-09-11T05:14:29.151Z,73.37
2022-09-11T05:17:01.417Z,71.99
2022-09-11T05:19:31.168Z,72.99
2022-09-11T05:21:59.700Z,73.94
2022-09-11T05:24:28.003Z,72.05
2022-09-11T05:26:58.950Z,71.08
2022-09-11T05:29:32.422Z,70.81
2022-09-11T05:32:09.955Z,70.84
2022-09-11T05:34:38.143Z,73.51
2022-09-11T05:37:08.847Z,74.23
2022-09-11T05:39:42.550Z,75.20
2022-09-11T05:42:12.569Z,73.62
2022-09-11T05:44:47.111Z,72.16
2022-09-11T05:47:15.380Z,72.31
2022-09-11T05:49:45.819Z,72.53
2022-09-11T05:52:14.747Z,72.14
2022-09-11T05:54:43.329Z,72.47
2022-09-11T05:57:13.790Z,75.50
2022-09-11T05:59:44.719Z,73.84
2022-09-11T06:02:14.329Z,73.25
2022-09-11T06:04:51.579Z,73.42
2022-09-11T06:07:21.313Z,75.33
2022-09-11T06:09:51.468Z,74.21
2022-09-11T06:12:19.723Z,75.02
2022-09-11T06:14:49.744Z,75.98
2022-09-11T06:17:18.272Z,77.91
2022-09-11T06:19:47.306Z,74.34
2022-09-11T06:22:16.885Z,73.35
2022-09-11T06:24:48.658Z,75.56
2022-09-11T06:27:19.044Z,73.56
2022-09-11T06:29:50.312Z,74.27
2022-09-11T06:32:20.633Z,73.74
2022-09-11T06:34:48.892Z,72.68
2022-09-11T06:37:17.299Z,73.33
2022-09-11T06:39:45.821Z,73.69
2022-09-11T06:42:21.099Z,73.46
2022-09-11T06:44:51.696Z,74.19
2022-09-11T06:47:20.670Z,72.99
2022-09-11T06:49:50.127Z,72.88
2022-09-11T06:52:39.081Z,72.47
2022-09-11T06:55:18.388Z,71.70
2022-09-11T06:57:55.859Z,70.94
2022-09-11T07:00:28.673Z,72.09
2022-09-11T07:02:57.358Z,71.86
2022-09-11T07:05:26.413Z,70.20
2022-09-11T07:07:57.057Z,69.94
2022-09-11T07:10:28.428Z,70.58
2022-09-11T07:13:00.339Z,71.25
2022-09-11T07:15:29.023Z,71.26
2022-09-11T07:18:02.182Z,73.25
2022-09-11T07:20:32.101Z,71.50
2022-09-11T07:23:00.492Z,71.78
2022-09-11T07:25:31.698Z,70.75
2022-09-11T07:28:00.224Z,70.07
2022-09-11T07:30:29.800Z,71.39
2022-09-11T07:32:58.761Z,72.97
2022-09-11T07:35:27.095Z,71.20
2022-09-11T07:37:58.256Z,70.99
2022-09-11T07:40:28.381Z,69.84
2022-09-11T07:42:59.999Z,70.19
2022-09-11T07:45:29.019Z,69.60
2022-09-11T07:47:57.616Z,68.83
2022-09-11T07:50:29.781Z,69.04
2022-09-11T07:52:59.443Z,68.51
2022-09-11T07:55:27.816Z,68.02
2022-09-11T07:57:56.318Z,68.74
2022-09-11T08:00:25.483Z,68.07
2022-09-11T08:03:05.635Z,67.85
2022-09-11T08:05:36.919Z,67.78
2022-09-11T08:08:05.858Z,67.92
2022-09-11T08:10:39.590Z,68.15
2022-09-11T08:13:09.642Z,67.91
2022-09-11T08:15:46.249Z,69.98
2022-09-11T08:18:15.270Z,71.38
2022-09-11T08:20:44.390Z,70.68
2022-09-11T08:23:12.919Z,69.37
2022-09-11T08:25:41.353Z,68.27
2022-09-11T08:28:11.167Z,68.21
2022-09-11T08:30:39.664Z,68.06
2022-09-11T08:33:09.425Z,68.38
2022-09-11T08:35:38.275Z,68.06
2022-09-11T08:38:06.908Z,67.79
2022-09-11T08:40:39.018Z,67.91
2022-09-11T08:43:26.596Z,68.41
2022-09-11T08:46:04.856Z,67.51
2022-09-11T08:48:43.706Z,68.25
2022-09-11T08:51:16.774Z,67.22
2022-09-11T08:53:46.281Z,67.70
2022-09-11T08:56:19.980Z,67.19
2022-09-11T08:59:15.493Z,66.83
2022-09-11T09:01:54.999Z,66.48
2022-09-11T09:05:00.357Z,66.63
2022-09-11T09:08:04.879Z,66.12
2022-09-11T09:11:00.729Z,67.17
2022-09-11T09:14:14.889Z,65.88
2022-09-11T09:17:02.668Z,66.45
2022-09-11T09:19:50.382Z,66.03
2022-09-11T09:22:44.429Z,66.92
2022-09-11T09:25:21.055Z,66.06
2022-09-11T09:28:15.530Z,66.47
2022-09-11T09:31:04.394Z,65.82
2022-09-11T09:33:52.959Z,66.04
2022-09-11T09:36:37.608Z,66.17
2022-09-11T09:39:15.769Z,67.29
2022-09-11T09:42:47.407Z,66.98
2022-09-11T09:45:38.405Z,67.78
2022-09-11T09:48:11.617Z,67.71
2022-09-11T09:50:42.309Z,68.33
2022-09-11T09:53:40.597Z,68.12
2022-09-11T09:56:16.386Z,67.69
2022-09-11T09:59:18.137Z,68.10
2022-09-11T10:01:51.782Z,67.32
2022-09-11T10:04:30.024Z,66.79
2022-09-11T10:07:15.133Z,68.08
2022-09-11T10:09:51.853Z,68.73
2022-09-11T10:12:27.065Z,67.87
2022-09-11T10:15:30.951Z,67.86
2022-09-11T10:18:43.033Z,67.42
2022-09-11T10:21:30.239Z,66.23
2022-09-11T10:24:23.193Z,66.65
2022-09-11T10:26:53.132Z,66.01
2022-09-11T10:29:26.436Z,66.27
2022-09-11T10:32:02.522Z,66.50
2022-09-11T10:34:39.111Z,66.39
2022-09-11T10:37:26.950Z,65.97
2022-09-11T10:40:06.699Z,65.63
2022-09-11T10:42:37.769Z,66.05
2022-09-11T10:45:16.927Z,65.94
2022-09-11T10:47:46.018Z,65.10
2022-09-11T10:50:17.473Z,65.38
2022-09-11T10:52:48.755Z,64.68
2022-09-11T10:55:18.584Z,64.58
2022-09-11T10:57:56.157Z,64.64
2022-09-11T11:00:31.042Z,63.63
2022-09-11T11:03:25.187Z,64.09
2022-09-11T11:06:46.240Z,63.35
2022-09-11T11:09:33.583Z,62.46
2022-09-11T11:12:31.790Z,62.29
2022-09-11T11:15:19.782Z,60.07
2022-09-11T11:18:06.412Z,54.51
2022-09-11T11:21:03.651Z,54.06
2022-09-11T11:23:56.780Z,49.71
2022-09-11T11:26:49.567Z,49.04
2022-09-11T11:29:45.235Z,47.09
2022-09-11T11:33:11.250Z,45.67
2022-09-11T11:36:29.890Z,44.79
2022-09-11T11:39:47.040Z,46.01
2022-09-11T11:42:37.999Z,43.91
2022-09-11T11:45:32.000Z,41.80
2022-09-11T11:48:09.073Z,40.56
2022-09-11T11:50:46.429Z,39.61
2022-09-11T11:53:31.537Z,39.01
2022-09-11T11:56:47.337Z,38.84
2022-09-11T11:59:33.292Z,38.44
2022-09-11T12:02:10.006Z,41.52
2022-09-11T12:05:02.118Z,40.86
2022-09-11T12:07:36.576Z,40.31
2022-09-11T12:10:08.498Z,35.70
2022-09-11T12:12:47.766Z,39.70
2022-09-11T12:15:23.904Z,37.10
2022-09-11T12:18:15.432Z,36.43
2022-09-11T12:20:45.925Z,37.56
2022-09-11T12:23:58.008Z,37.95
2022-09-11T12:26:31.493Z,38.91
2022-09-11T12:29:12.985Z,39.84
2022-09-11T12:31:50.483Z,42.56
2022-09-11T12:34:47.585Z,40.65
2022-09-11T12:37:33.072Z,39.83
2022-09-11T12:40:16.985Z,38.49
2022-09-11T12:43:09.143Z,38.36
2022-09-11T12:45:38.445Z,35.20
2022-09-11T12:48:12.561Z,35.44
2022-09-11T12:50:49.256Z,32.46
2022-09-11T12:53:26.194Z,32.84
2022-09-11T12:56:19.198Z,33.62
2022-09-11T12:59:07.605Z,32.10
2022-09-11T13:01:44.225Z,37.02
2022-09-11T13:04:14.642Z,34.11
2022-09-11T13:06:51.728Z,34.28
2022-09-11T13:09:41.476Z,35.65
2022-09-11T13:12:18.981Z,33.91
2022-09-11T13:15:00.766Z,34.91
2022-09-11T13:17:34.425Z,34.50
2022-09-11T13:20:07.281Z,35.63
2022-09-11T13:22:35.800Z,33.79
2022-09-11T13:25:17.686Z,35.75
2022-09-11T13:27:56.392Z,36.42
2022-09-11T13:30:26.854Z,33.68
2022-09-11T13:33:08.519Z,33.73
2022-09-11T13:35:40.471Z,32.39
2022-09-11T13:38:24.966Z,32.93
2022-09-11T13:40:58.849Z,31.99
2022-09-11T13:43:47.129Z,30.55
2022-09-11T13:46:15.521Z,33.27
2022-09-11T13:48:45.736Z,31.41
2022-09-11T13:51:17.450Z,34.46
2022-09-11T13:53:58.800Z,33.13
2022-09-11T13:56:55.920Z,34.84
2022-09-11T13:59:41.501Z,34.17
2022-09-11T14:02:45.844Z,35.85
2022-09-11T14:05:23.771Z,35.81
2022-09-11T14:08:07.639Z,34.96
2022-09-11T14:10:49.403Z,35.53
2022-09-11T14:13:36.098Z,36.46
2022-09-11T14:16:21.409Z,36.10
2022-09-11T14:18:59.400Z,34.65
2022-09-11T14:21:40.590Z,32.26
2022-09-11T14:24:32.616Z,33.04
2022-09-11T14:27:32.988Z,33.98
2022-09-11T14:30:01.316Z,33.42
2022-09-11T14:32:38.963Z,33.77
2022-09-11T14:35:09.978Z,33.44
2022-09-11T14:37:45.657Z,31.29
2022-09-11T14:40:19.411Z,31.58
2022-09-11T14:42:48.385Z,32.64
2022-09-11T14:45:25.697Z,34.30
2022-09-11T14:47:54.037Z,32.12
2022-09-11T14:50:24.531Z,31.16
2022-09-11T14:52:52.903Z,31.07
2022-09-11T14:55:21.519Z,32.27
2022-09-11T14:57:49.884Z,33.43
2022-09-11T15:00:19.493Z,36.08
2022-09-11T15:02:47.902Z,37.13
2022-09-11T15:05:21.677Z,35.90
2022-09-11T15:07:50.001Z,37.70
2022-09-11T15:10:42.697Z,36.26
2022-09-11T15:13:10.949Z,37.81
2022-09-11T15:15:40.538Z,37.09
2022-09-11T15:18:09.624Z,38.88
2022-09-11T15:20:38.344Z,39.39
2022-09-11T15:23:06.529Z,39.10
2022-09-11T15:25:34.745Z,37.88
2022-09-11T15:28:03.007Z,34.42
2022-09-11T15:30:31.148Z,33.02
2022-09-11T15:32:59.292Z,33.11
2022-09-11T15:35:32.622Z,33.07
2022-09-11T15:38:01.240Z,33.51
2022-09-11T15:40:29.555Z,34.40
2022-09-11T15:42:57.968Z,33.71
2022-09-11T15:45:26.733Z,34.54
2022-09-11T15:47:54.938Z,36.44
2022-09-11T15:50:28.227Z,36.44
2022-09-11T15:52:56.569Z,35.46
2022-09-11T15:55:26.502Z,35.17
2022-09-11T15:57:55.025Z,36.65
2022-09-11T16:00:23.216Z,36.23
2022-09-11T16:02:56.338Z,37.16
2022-09-11T16:05:24.512Z,38.29
2022-09-11T16:07:52.822Z,37.96
2022-09-11T16:10:21.178Z,38.97
2022-09-11T16:12:49.885Z,38.60
2022-09-11T16:15:18.127Z,41.27
2022-09-11T16:17:46.415Z,40.70
2022-09-11T16:20:15.293Z,41.32
2022-09-11T16:22:44.082Z,40.94
2022-09-11T16:25:12.291Z,42.25
2022-09-11T16:27:40.609Z,42.22
2022-09-11T16:30:32.671Z,43.52
2022-09-11T16:32:58.148Z,43.42
2022-09-11T16:35:27.202Z,43.01
2022-09-11T16:37:57.902Z,43.28
2022-09-11T16:40:26.372Z,44.60
2022-09-11T16:42:54.773Z,44.85
2022-09-11T16:45:23.182Z,45.69
2022-09-11T16:47:53.872Z,44.96
2022-09-11T16:50:24.196Z,43.99
2022-09-11T16:52:54.417Z,46.02
2022-09-11T16:55:22.711Z,45.76
2022-09-11T16:57:51.828Z,46.86
2022-09-11T17:00:20.084Z,47.00
2022-09-11T17:03:06.899Z,45.57
2022-09-11T17:05:35.227Z,45.19
2022-09-11T17:08:03.683Z,46.39
2022-09-11T17:10:31.953Z,47.83
2022-09-11T17:13:00.342Z,47.52
2022-09-11T17:15:29.328Z,47.17
2022-09-11T17:17:59.054Z,47.12
2022-09-11T17:20:27.228Z,44.95
2022-09-11T17:22:58.101Z,46.31
2022-09-11T17:25:26.688Z,45.04
2022-09-11T17:27:54.886Z,44.88
2022-09-11T17:30:23.240Z,44.84
2022-09-11T17:32:51.627Z,49.88
2022-09-11T17:35:20.168Z,48.06
2022-09-11T17:37:48.444Z,46.13
2022-09-11T17:40:17.936Z,45.82
2022-09-11T17:42:48.497Z,45.55
2022-09-11T17:45:16.787Z,45.49
2022-09-11T17:47:50.196Z,45.80
2022-09-11T17:50:18.559Z,45.50
2022-09-11T17:52:46.768Z,45.75
2022-09-11T17:55:14.954Z,45.49
2022-09-11T17:57:45.371Z,45.66
2022-09-11T18:00:14.044Z,45.92
2022-09-11T18:02:42.532Z,45.82
2022-09-11T18:05:10.689Z,52.16
2022-09-11T18:07:39.144Z,52.87
2022-09-11T18:10:08.101Z,50.85
2022-09-11T18:12:36.292Z,49.36
2022-09-11T18:15:06.293Z,47.85
2022-09-11T18:17:34.494Z,47.87
2022-09-11T18:20:03.921Z,47.30
2022-09-11T18:22:34.179Z,47.28
2022-09-11T18:25:02.376Z,47.04
2022-09-11T18:27:33.670Z,50.41
2022-09-11T18:30:01.839Z,52.30
2022-09-11T18:32:30.162Z,54.17
2022-09-11T18:35:00.126Z,49.55
2022-09-11T18:37:28.432Z,51.17
2022-09-11T18:39:56.726Z,49.21
2022-09-11T18:42:25.126Z,49.48
2022-09-11T18:44:53.264Z,49.30
2022-09-11T18:47:22.025Z,48.50
2022-09-11T18:49:51.087Z,50.28
2022-09-11T18:52:23.931Z,50.05
2022-09-11T18:54:54.472Z,48.47
2022-09-11T18:57:22.636Z,48.12
2022-09-11T18:59:52.032Z,48.33
2022-09-11T19:02:20.455Z,50.59
2022-09-11T19:04:48.754Z,50.40
2022-09-11T19:07:16.997Z,48.79
2022-09-11T19:09:46.206Z,48.43
2022-09-11T19:12:16.164Z,48.29
2022-09-11T19:14:44.411Z,48.21
2022-09-11T19:17:12.847Z,58.62
2022-09-11T19:19:41.402Z,59.30
2022-09-11T19:22:09.561Z,61.23
2022-09-11T19:24:38.225Z,61.67
2022-09-11T19:27:07.514Z,54.85
2022-09-11T19:29:35.779Z,52.25
2022-09-11T19:32:04.148Z,51.19
2022-09-11T19:34:37.281Z,51.02
2022-09-11T19:37:09.450Z,50.42
2022-09-11T19:39:37.882Z,50.32
2022-09-11T19:42:06.203Z,50.37
2022-09-11T19:44:34.565Z,50.43
2022-09-11T19:47:02.951Z,50.43
2022-09-11T19:49:31.239Z,50.36
2022-09-11T19:52:00.414Z,50.30
2022-09-11T19:54:30.666Z,51.50
2022-09-11T19:57:00.325Z,50.52
2022-09-11T19:59:28.694Z,49.90
2022-09-11T20:01:56.963Z,49.96
2022-09-11T20:04:25.260Z,49.82
2022-09-11T20:09:30.886Z,49.89
2022-09-11T20:12:01.345Z,50.42
2022-09-11T20:14:30.408Z,49.58
2022-09-11T20:17:00.572Z,50.22
2022-09-11T20:19:29.256Z,49.67
2022-09-11T20:21:57.654Z,49.59
2022-09-11T20:24:25.907Z,49.39
2022-09-11T20:26:54.697Z,49.16
2022-09-11T20:29:22.851Z,48.80
2022-09-11T20:31:51.233Z,48.98
2022-09-11T20:34:20.191Z,48.96
2022-09-11T20:36:48.752Z,49.85
2022-09-11T20:39:17.314Z,52.44
2022-09-11T20:41:45.528Z,56.90
2022-09-11T20:44:13.699Z,52.23
2022-09-11T20:46:43.634Z,50.83
2022-09-11T20:49:12.289Z,50.20
2022-09-11T20:51:40.729Z,50.19
2022-09-11T20:54:09.531Z,49.76
2022-09-11T20:56:37.758Z,49.46
2022-09-11T20:59:06.065Z,53.80
2022-09-11T21:01:34.772Z,50.04
2022-09-11T21:04:04.471Z,49.86
2022-09-11T21:06:34.768Z,49.73
2022-09-11T21:09:07.629Z,49.46
2022-09-11T21:11:37.293Z,49.31
2022-09-11T21:14:06.520Z,49.15
2022-09-11T21:16:36.424Z,49.11
2022-09-11T21:19:05.895Z,48.96
2022-09-11T21:21:37.792Z,50.17
2022-09-11T21:24:11.589Z,49.35
2022-09-11T21:26:40.424Z,50.10
2022-09-11T21:29:12.889Z,62.64
2022-09-11T21:31:41.189Z,54.99
2022-09-11T21:34:10.042Z,52.18
2022-09-11T21:36:38.436Z,51.17
2022-09-11T21:39:06.732Z,50.31
2022-09-11T21:41:34.783Z,49.99
2022-09-11T21:44:04.390Z,49.58
2022-09-11T21:46:33.033Z,50.63
2022-09-11T21:49:01.687Z,50.45
2022-09-11T21:51:30.139Z,50.04
2022-09-11T21:53:59.007Z,49.69
2022-09-11T21:56:31.800Z,49.80
2022-09-11T21:59:00.628Z,49.61
2022-09-11T22:01:31.525Z,49.47
2022-09-11T22:04:00.276Z,49.86
2022-09-11T22:06:29.732Z,54.22
2022-09-11T22:08:58.538Z,51.01
2022-09-11T22:11:27.062Z,50.30
2022-09-11T22:13:55.595Z,50.04
2022-09-11T22:16:24.157Z,49.69
2022-09-11T22:18:54.784Z,49.44
2022-09-11T22:21:23.663Z,49.86
2022-09-11T22:23:52.315Z,49.72
2022-09-11T22:26:24.022Z,49.60
2022-09-11T22:29:01.414Z,49.25
2022-09-11T22:31:29.636Z,49.21
2022-09-11T22:33:58.110Z,49.51
2022-09-11T22:36:29.580Z,50.01
2022-09-11T22:38:58.986Z,50.70
2022-09-11T22:41:27.581Z,49.89
2022-09-11T22:43:56.056Z,49.59
2022-09-11T22:46:26.629Z,49.83
2022-09-11T22:48:56.440Z,49.41
2022-09-11T22:51:24.736Z,49.41
2022-09-11T22:53:52.918Z,49.13
2022-09-11T22:56:21.854Z,49.33
2022-09-11T22:58:50.331Z,49.21
2022-09-11T23:01:22.174Z,49.72
2022-09-11T23:03:53.592Z,49.72
2022-09-11T23:06:40.866Z,49.60
2022-09-11T23:09:13.341Z,49.35
2022-09-11T23:11:41.617Z,49.52
2022-09-11T23:14:14.139Z,49.52
2022-09-11T23:16:43.285Z,49.19
2022-09-11T23:19:14.092Z,50.44
2022-09-11T23:21:42.688Z,50.43
2022-09-11T23:24:14.467Z,49.72
2022-09-11T23:26:43.911Z,49.62
2022-09-11T23:29:15.819Z,50.67
2022-09-11T23:31:44.984Z,49.97
2022-09-11T23:34:16.693Z,51.21
2022-09-11T23:36:45.486Z,51.09
2022-09-11T23:39:14.240Z,50.17
2022-09-11T23:41:42.021Z,49.61
2022-09-11T23:44:10.430Z,49.66
2022-09-11T23:46:38.618Z,49.44
2022-09-11T23:49:07.334Z,56.71
2022-09-11T23:51:49.921Z,54.01
2022-09-11T23:54:18.090Z,52.95
2022-09-11T23:56:45.953Z,51.59
2022-09-11T23:59:14.203Z,64.74
